Time;durP1;ratioP1;P1;durP2;ratioP2;P2;SDS_P1;SDS_P2;PMS_P1;PMS_P2;Temp;Humidity;BMP_temperature;BMP_pressure;BME280_temperature;BME280_humidity;BME280_pressure;Samples;Min_cycle;Max_cycle;Signal;HPM_P1;HPM_P2
2021/12/09 00:00:00;;;;;;;;;;;24.30;30.30;;;;;;478606;249;1211;-47
2021/12/09 00:02:00;;;;;;;;;;;24.30;30.30;;;;;;478166;249;2358;-47
2021/12/09 00:04:02;;;;;;;;;;;24.30;30.30;;;;;;478472;249;1036;-47
2021/12/09 00:06:03;;;;;;;;;;;24.20;30.30;;;;;;478331;249;1451;-47
2021/12/09 00:08:04;;;;;;;;;;;24.30;30.30;;;;;;478757;249;2135;-47
2021/12/09 00:10:07;;;;;;;;;;;24.30;30.30;;;;;;478392;249;1074;-47
2021/12/09 00:12:07;;;;;;;;;;;24.30;30.30;;;;;;478450;249;1946;-47
2021/12/09 00:14:08;;;;;;;;;;;24.30;30.20;;;;;;478381;248;1044;-47
2021/12/09 00:16:09;;;;;;;;;;;24.30;30.30;;;;;;478307;249;1346;-47
2021/12/09 00:18:11;;;;;;;;;;;24.30;30.30;;;;;;478361;248;1283;-47
2021/12/09 00:20:13;;;;;;;;;;;24.30;30.20;;;;;;478401;249;1159;-47
2021/12/09 00:22:13;;;;;;;;;;;24.30;30.20;;;;;;478693;248;1688;-46
2021/12/09 00:24:14;;;;;;;;;;;24.30;30.20;;;;;;478610;249;1105;-46
2021/12/09 00:26:16;;;;;;;;;;;24.30;30.30;;;;;;478387;249;1221;-47
2021/12/09 00:28:17;;;;;;;;;;;24.30;30.30;;;;;;478364;249;2210;-47
2021/12/09 00:30:19;;;;;;;;;;;24.30;30.30;;;;;;478313;248;1068;-47
2021/12/09 00:32:20;;;;;;;;;;;24.30;30.30;;;;;;478239;248;1521;-47
2021/12/09 00:34:28;;;;;;;;;;;24.30;30.40;;;;;;478347;248;2011;-47
2021/12/09 00:36:27;;;;;;;;;;;24.30;30.40;;;;;;477803;249;1830;-47
2021/12/09 00:38:36;;;;;;;;;;;24.30;30.30;;;;;;478402;249;1091;-47
2021/12/09 00:40:35;;;;;;;;;;;24.30;30.40;;;;;;478271;248;1538;-47
2021/12/09 00:42:37;;;;;;;;;;;24.30;30.40;;;;;;478553;249;1180;-47
2021/12/09 00:44:38;;;;;;;;;;;24.30;30.40;;;;;;478437;249;1067;-46
2021/12/09 00:46:39;;;;;;;;;;;24.30;30.40;;;;;;478358;248;1360;-47
2021/12/09 00:48:41;;;;;;;;;;;24.30;30.40;;;;;;478813;249;2186;-47
2021/12/09 00:50:42;;;;;;;;;;;24.30;30.30;;;;;;478803;249;1066;-47
2021/12/09 00:52:43;;;;;;;;;;;24.30;30.30;;;;;;478339;248;2091;-47
2021/12/09 00:54:46;;;;;;;;;;;24.30;30.30;;;;;;478376;249;1103;-47
2021/12/09 00:56:46;;;;;;;;;;;24.30;30.40;;;;;;478480;249;1462;-47
2021/12/09 00:58:47;;;;;;;;;;;24.30;30.40;;;;;;478429;249;1596;-46
2021/12/09 01:00:49;;;;;;;;;;;24.30;30.40;;;;;;478761;249;1227;-47
2021/12/09 01:02:50;;;;;;;;;;;24.30;30.30;;;;;;478340;249;1173;-47
2021/12/09 01:04:51;;;;;;;;;;;24.30;30.30;;;;;;478850;249;1040;-47
2021/12/09 01:06:53;;;;;;;;;;;24.30;30.30;;;;;;478629;249;1291;-47
2021/12/09 01:08:54;;;;;;;;;;;24.30;30.30;;;;;;478787;249;2124;-47
2021/12/09 01:10:55;;;;;;;;;;;24.30;30.40;;;;;;478314;249;1467;-47
2021/12/09 01:12:56;;;;;;;;;;;24.30;30.40;;;;;;478341;248;1206;-47
2021/12/09 01:14:58;;;;;;;;;;;24.30;30.40;;;;;;478767;248;1083;-46
2021/12/09 01:16:59;;;;;;;;;;;24.40;30.40;;;;;;478686;249;1208;-47
2021/12/09 01:19:00;;;;;;;;;;;24.30;30.30;;;;;;478540;249;1062;-47
2021/12/09 01:21:02;;;;;;;;;;;24.30;30.40;;;;;;478736;248;1340;-46
2021/12/09 01:23:03;;;;;;;;;;;24.40;30.40;;;;;;478386;248;1005;-46
2021/12/09 01:25:04;;;;;;;;;;;24.30;30.30;;;;;;478801;249;1058;-47
2021/12/09 01:27:06;;;;;;;;;;;24.30;30.40;;;;;;478509;249;1236;-47
2021/12/09 01:29:14;;;;;;;;;;;24.30;30.40;;;;;;478344;249;2190;-47
2021/12/09 01:31:09;;;;;;;;;;;24.30;30.40;;;;;;477856;248;2247;-47
2021/12/09 01:33:10;;;;;;;;;;;24.40;30.40;;;;;;478442;249;1084;-47
2021/12/09 01:35:11;;;;;;;;;;;24.30;30.40;;;;;;478732;249;1343;-47
2021/12/09 01:37:13;;;;;;;;;;;24.40;30.40;;;;;;478525;249;1222;-47
2021/12/09 01:39:14;;;;;;;;;;;24.40;30.40;;;;;;478391;249;1081;-46
2021/12/09 01:41:15;;;;;;;;;;;24.40;30.40;;;;;;478777;249;1319;-47
2021/12/09 01:43:17;;;;;;;;;;;24.40;30.40;;;;;;478389;249;1245;-47
2021/12/09 01:45:18;;;;;;;;;;;24.30;30.40;;;;;;478372;249;1296;-47
2021/12/09 01:47:19;;;;;;;;;;;24.30;30.40;;;;;;478603;249;1242;-47
2021/12/09 01:49:21;;;;;;;;;;;24.40;30.40;;;;;;478754;249;2194;-47
2021/12/09 01:51:22;;;;;;;;;;;24.30;30.40;;;;;;478646;249;1366;-47
2021/12/09 01:53:23;;;;;;;;;;;24.40;30.50;;;;;;478450;248;1220;-47
2021/12/09 01:55:26;;;;;;;;;;;24.40;30.40;;;;;;478360;249;1032;-46
2021/12/09 01:57:26;;;;;;;;;;;24.30;30.40;;;;;;478259;249;1974;-47
2021/12/09 01:59:27;;;;;;;;;;;24.40;30.50;;;;;;478534;249;1133;-47
2021/12/09 02:01:28;;;;;;;;;;;24.40;30.40;;;;;;478580;248;1226;-47
2021/12/09 02:03:30;;;;;;;;;;;24.40;30.50;;;;;;478525;249;1241;-46
2021/12/09 02:05:31;;;;;;;;;;;24.40;30.50;;;;;;478814;249;1163;-47
2021/12/09 02:07:32;;;;;;;;;;;24.40;30.50;;;;;;478371;249;1652;-47
2021/12/09 02:09:35;;;;;;;;;;;24.40;30.50;;;;;;478363;248;2198;-47
2021/12/09 02:11:36;;;;;;;;;;;24.40;30.40;;;;;;478777;248;1296;-47
2021/12/09 02:13:38;;;;;;;;;;;24.50;30.40;;;;;;478377;249;1193;-47
2021/12/09 02:15:40;;;;;;;;;;;24.40;30.40;;;;;;478391;248;1455;-46
2021/12/09 02:17:40;;;;;;;;;;;24.50;30.40;;;;;;478402;249;2298;-47
2021/12/09 02:19:42;;;;;;;;;;;24.40;30.40;;;;;;478378;249;995;-47
2021/12/09 02:21:43;;;;;;;;;;;24.40;30.40;;;;;;478316;249;1443;-47
2021/12/09 02:23:45;;;;;;;;;;;24.40;30.40;;;;;;478800;249;1093;-47
2021/12/09 02:25:46;;;;;;;;;;;24.50;30.40;;;;;;478785;249;1342;-47
2021/12/09 02:27:47;;;;;;;;;;;24.50;30.40;;;;;;478315;249;1486;-47
2021/12/09 02:29:49;;;;;;;;;;;24.50;30.40;;;;;;478719;249;2191;-47
2021/12/09 02:31:56;;;;;;;;;;;24.40;30.40;;;;;;478470;249;1389;-47
2021/12/09 02:33:52;;;;;;;;;;;24.40;30.40;;;;;;478356;248;2274;-47
2021/12/09 02:35:53;;;;;;;;;;;24.40;30.40;;;;;;478478;248;1017;-47
2021/12/09 02:37:55;;;;;;;;;;;24.40;30.40;;;;;;478334;249;1243;-47
2021/12/09 02:39:56;;;;;;;;;;;24.50;30.50;;;;;;478519;248;1088;-47
2021/12/09 02:41:58;;;;;;;;;;;24.40;30.40;;;;;;478415;248;1171;-47
2021/12/09 02:44:01;;;;;;;;;;;24.40;30.40;;;;;;478367;249;2522;-47
2021/12/09 02:46:00;;;;;;;;;;;24.40;30.50;;;;;;478530;248;2249;-47
2021/12/09 02:48:01;;;;;;;;;;;24.40;30.50;;;;;;478322;249;2399;-46
2021/12/09 02:50:03;;;;;;;;;;;24.40;30.50;;;;;;478710;249;2112;-47
2021/12/09 02:52:04;;;;;;;;;;;24.50;30.50;;;;;;478255;249;1224;-46
2021/12/09 02:54:05;;;;;;;;;;;24.50;30.50;;;;;;478746;249;1071;-47
2021/12/09 02:56:06;;;;;;;;;;;24.50;30.40;;;;;;478498;249;1152;-47
2021/12/09 02:58:08;;;;;;;;;;;24.40;30.50;;;;;;478728;249;1291;-47
2021/12/09 03:00:09;;;;;;;;;;;24.40;30.50;;;;;;478790;248;1081;-47
2021/12/09 03:02:11;;;;;;;;;;;24.50;30.50;;;;;;478316;248;1254;-47
2021/12/09 03:04:12;;;;;;;;;;;24.40;30.40;;;;;;478322;249;1150;-47
2021/12/09 03:06:13;;;;;;;;;;;24.40;30.50;;;;;;478609;249;1339;-47
2021/12/09 03:08:19;;;;;;;;;;;24.40;30.60;;;;;;478347;249;1133;-47
2021/12/09 03:10:19;;;;;;;;;;;24.40;30.50;;;;;;478523;248;2179;-47
2021/12/09 03:12:18;;;;;;;;;;;24.40;30.50;;;;;;478201;249;1565;-47
2021/12/09 03:14:20;;;;;;;;;;;24.50;30.50;;;;;;478377;249;1209;-47
2021/12/09 03:16:22;;;;;;;;;;;24.40;30.50;;;;;;478412;249;1159;-47
2021/12/09 03:18:23;;;;;;;;;;;24.50;30.50;;;;;;478732;248;2629;-47
2021/12/09 03:20:24;;;;;;;;;;;24.40;30.50;;;;;;478710;249;1202;-47
2021/12/09 03:22:25;;;;;;;;;;;24.50;30.50;;;;;;478318;249;1284;-47
2021/12/09 03:24:27;;;;;;;;;;;24.50;30.50;;;;;;478811;249;1072;-47
2021/12/09 03:26:29;;;;;;;;;;;24.50;30.50;;;;;;478261;249;1340;-47
2021/12/09 03:28:29;;;;;;;;;;;24.50;30.50;;;;;;478286;249;2231;-47
2021/12/09 03:30:30;;;;;;;;;;;24.50;30.50;;;;;;478719;249;2116;-47
2021/12/09 03:32:32;;;;;;;;;;;24.50;30.50;;;;;;478435;249;1355;-47
2021/12/09 03:34:33;;;;;;;;;;;24.50;30.50;;;;;;478404;248;1117;-47
2021/12/09 03:36:34;;;;;;;;;;;24.50;30.50;;;;;;478322;249;1434;-47
2021/12/09 03:38:36;;;;;;;;;;;24.50;30.50;;;;;;478302;249;1171;-47
2021/12/09 03:40:37;;;;;;;;;;;24.40;30.50;;;;;;478433;249;1242;-47
2021/12/09 03:42:38;;;;;;;;;;;24.40;30.60;;;;;;478394;249;1235;-47
2021/12/09 03:44:40;;;;;;;;;;;24.50;30.60;;;;;;478529;248;1178;-47
2021/12/09 03:46:41;;;;;;;;;;;24.50;30.60;;;;;;478551;249;1171;-47
2021/12/09 03:48:42;;;;;;;;;;;24.50;30.50;;;;;;478758;249;2190;-47
2021/12/09 03:50:45;;;;;;;;;;;24.50;30.50;;;;;;478678;249;1416;-46
2021/12/09 03:52:45;;;;;;;;;;;24.50;30.50;;;;;;478190;249;2218;-47
2021/12/09 03:54:46;;;;;;;;;;;24.50;30.50;;;;;;478512;249;1074;-47
2021/12/09 03:56:48;;;;;;;;;;;24.50;30.50;;;;;;478647;249;1325;-47
2021/12/09 03:58:49;;;;;;;;;;;24.50;30.50;;;;;;478759;249;1714;-46
2021/12/09 04:00:50;;;;;;;;;;;24.50;30.50;;;;;;478750;249;1265;-47
2021/12/09 04:02:52;;;;;;;;;;;24.50;30.50;;;;;;478649;249;1261;-47
2021/12/09 04:04:53;;;;;;;;;;;24.50;30.50;;;;;;478807;248;1285;-47
2021/12/09 04:06:54;;;;;;;;;;;24.50;30.50;;;;;;478518;248;1143;-47
2021/12/09 04:08:56;;;;;;;;;;;24.50;30.50;;;;;;478285;249;2202;-47
2021/12/09 04:10:57;;;;;;;;;;;24.50;30.60;;;;;;478331;248;1355;-47
2021/12/09 04:12:58;;;;;;;;;;;24.50;30.60;;;;;;478313;249;1139;-46
2021/12/09 04:15:00;;;;;;;;;;;24.50;30.50;;;;;;478490;249;1229;-47
2021/12/09 04:17:01;;;;;;;;;;;24.50;30.60;;;;;;478224;249;1580;-47
2021/12/09 04:19:02;;;;;;;;;;;24.50;30.60;;;;;;478753;249;1142;-47
2021/12/09 04:21:03;;;;;;;;;;;24.50;30.50;;;;;;478285;249;1157;-47
2021/12/09 04:23:05;;;;;;;;;;;24.50;30.60;;;;;;478367;249;1216;-47
2021/12/09 04:25:07;;;;;;;;;;;24.50;30.50;;;;;;478327;249;1184;-47
2021/12/09 04:27:08;;;;;;;;;;;24.50;30.50;;;;;;478500;249;1223;-47
2021/12/09 04:29:09;;;;;;;;;;;24.50;30.50;;;;;;478617;249;2139;-47
2021/12/09 04:31:11;;;;;;;;;;;24.50;30.50;;;;;;478602;249;1174;-47
2021/12/09 04:33:12;;;;;;;;;;;24.50;30.50;;;;;;478815;249;1241;-47
2021/12/09 04:35:13;;;;;;;;;;;24.60;30.50;;;;;;478787;249;1129;-47
2021/12/09 04:37:14;;;;;;;;;;;24.60;30.50;;;;;;478729;249;1229;-47
2021/12/09 04:39:16;;;;;;;;;;;24.60;30.50;;;;;;478332;249;1034;-47
2021/12/09 04:41:17;;;;;;;;;;;24.50;30.50;;;;;;478337;249;1255;-47
2021/12/09 04:43:18;;;;;;;;;;;24.60;30.50;;;;;;478348;249;1339;-47
2021/12/09 04:45:20;;;;;;;;;;;24.60;30.50;;;;;;478332;249;1168;-46
2021/12/09 04:47:21;;;;;;;;;;;24.60;30.50;;;;;;478196;249;1206;-46
2021/12/09 04:49:22;;;;;;;;;;;24.60;30.50;;;;;;478307;249;2199;-47
2021/12/09 04:51:24;;;;;;;;;;;24.50;30.50;;;;;;478530;249;1205;-47
2021/12/09 04:53:25;;;;;;;;;;;24.60;30.50;;;;;;478433;248;1232;-47
2021/12/09 04:55:26;;;;;;;;;;;24.50;30.50;;;;;;478697;249;1117;-47
2021/12/09 04:57:28;;;;;;;;;;;24.60;30.50;;;;;;478499;249;1107;-46
2021/12/09 04:59:29;;;;;;;;;;;24.60;30.50;;;;;;478481;249;1076;-47
2021/12/09 05:01:30;;;;;;;;;;;24.60;30.50;;;;;;478254;249;1422;-47
2021/12/09 05:03:32;;;;;;;;;;;24.60;30.50;;;;;;478318;248;1142;-47
2021/12/09 05:05:35;;;;;;;;;;;24.50;30.50;;;;;;478716;249;1374;-47
2021/12/09 05:07:34;;;;;;;;;;;24.50;30.50;;;;;;478159;249;2394;-46
2021/12/09 05:09:39;;;;;;;;;;;24.50;30.50;;;;;;478345;248;2202;-47
2021/12/09 05:11:48;;;;;;;;;;;24.50;30.60;;;;;;478064;249;1564;-46
2021/12/09 05:13:49;;;;;;;;;;;24.50;30.60;;;;;;478307;249;1073;-47
2021/12/09 05:15:51;;;;;;;;;;;24.60;30.60;;;;;;478376;249;1327;-47
2021/12/09 05:17:52;;;;;;;;;;;24.60;30.50;;;;;;478745;249;1217;-47
2021/12/09 05:19:53;;;;;;;;;;;24.60;30.50;;;;;;478722;249;1084;-47
2021/12/09 05:21:55;;;;;;;;;;;24.60;30.50;;;;;;478267;249;1323;-46
2021/12/09 05:23:56;;;;;;;;;;;24.60;30.50;;;;;;478284;249;1148;-46
2021/12/09 05:25:57;;;;;;;;;;;24.60;30.50;;;;;;478730;248;1575;-47
2021/12/09 05:27:59;;;;;;;;;;;24.60;30.50;;;;;;478494;248;1212;-47
2021/12/09 05:30:06;;;;;;;;;;;24.50;30.50;;;;;;478247;248;2132;-47
2021/12/09 05:32:11;;;;;;;;;;;24.60;30.60;;;;;;478123;249;1775;-47
2021/12/09 05:34:12;;;;;;;;;;;24.60;30.60;;;;;;478767;248;1236;-47
2021/12/09 05:36:14;;;;;;;;;;;24.60;30.50;;;;;;478255;249;1386;-47
2021/12/09 05:38:15;;;;;;;;;;;24.60;30.50;;;;;;478353;249;1125;-47
2021/12/09 05:40:16;;;;;;;;;;;24.60;30.60;;;;;;478242;249;1362;-47
2021/12/09 05:42:17;;;;;;;;;;;24.60;30.50;;;;;;478376;248;1371;-47
2021/12/09 05:44:19;;;;;;;;;;;24.60;30.60;;;;;;478251;249;1210;-47
2021/12/09 05:46:22;;;;;;;;;;;24.60;30.60;;;;;;478065;248;1341;-47
2021/12/09 05:48:22;;;;;;;;;;;24.50;30.60;;;;;;478325;249;2183;-47
2021/12/09 05:50:24;;;;;;;;;;;24.50;30.60;;;;;;478190;249;2183;-47
2021/12/09 05:52:25;;;;;;;;;;;24.50;30.60;;;;;;478174;249;1196;-47
2021/12/09 05:54:26;;;;;;;;;;;24.60;30.60;;;;;;478299;249;1078;-47
2021/12/09 05:56:27;;;;;;;;;;;24.50;30.60;;;;;;478151;249;1617;-47
2021/12/09 05:58:29;;;;;;;;;;;24.60;30.60;;;;;;478574;249;995;-47
2021/12/09 06:00:30;;;;;;;;;;;24.60;30.60;;;;;;478341;249;1420;-47
2021/12/09 06:02:33;;;;;;;;;;;24.60;30.60;;;;;;478092;249;1167;-47
2021/12/09 06:04:33;;;;;;;;;;;24.60;30.50;;;;;;478056;249;2315;-46
2021/12/09 06:06:34;;;;;;;;;;;24.60;30.50;;;;;;478034;249;1648;-47
2021/12/09 06:08:38;;;;;;;;;;;24.60;30.60;;;;;;478208;249;1192;-47
2021/12/09 06:10:37;;;;;;;;;;;24.60;30.50;;;;;;478074;249;2252;-46
2021/12/09 06:12:38;;;;;;;;;;;24.60;30.50;;;;;;478095;249;1520;-47
2021/12/09 06:14:40;;;;;;;;;;;24.60;30.50;;;;;;478371;249;1062;-47
2021/12/09 06:16:41;;;;;;;;;;;24.60;30.60;;;;;;478007;248;1184;-46
2021/12/09 06:18:43;;;;;;;;;;;24.60;30.60;;;;;;478135;249;1107;-47
2021/12/09 06:20:44;;;;;;;;;;;24.60;30.60;;;;;;478309;249;1058;-47
2021/12/09 06:22:45;;;;;;;;;;;24.60;30.50;;;;;;478176;249;1079;-47
2021/12/09 06:24:47;;;;;;;;;;;24.60;30.50;;;;;;478225;249;1057;-47
2021/12/09 06:26:48;;;;;;;;;;;24.60;30.50;;;;;;478266;249;1345;-47
2021/12/09 06:28:49;;;;;;;;;;;24.60;30.60;;;;;;478062;249;1060;-47
2021/12/09 06:30:51;;;;;;;;;;;24.60;30.60;;;;;;477936;249;2198;-46
2021/12/09 06:32:52;;;;;;;;;;;24.60;30.60;;;;;;478305;249;1204;-47
2021/12/09 06:34:54;;;;;;;;;;;24.60;30.60;;;;;;478196;249;1051;-47
2021/12/09 06:36:55;;;;;;;;;;;24.60;30.60;;;;;;478140;248;1314;-47
2021/12/09 06:38:56;;;;;;;;;;;24.60;30.60;;;;;;477999;249;1110;-47
2021/12/09 06:40:58;;;;;;;;;;;24.60;30.60;;;;;;478002;249;1178;-47
2021/12/09 06:42:59;;;;;;;;;;;24.60;30.70;;;;;;477976;248;1101;-47
2021/12/09 06:45:00;;;;;;;;;;;24.60;30.60;;;;;;477932;249;1078;-47
2021/12/09 06:47:02;;;;;;;;;;;24.60;30.60;;;;;;477977;249;1301;-47
2021/12/09 06:49:03;;;;;;;;;;;24.60;30.60;;;;;;478050;248;1138;-47
2021/12/09 06:51:05;;;;;;;;;;;24.60;30.60;;;;;;478077;249;2198;-46
2021/12/09 06:53:06;;;;;;;;;;;24.60;30.60;;;;;;478087;248;2235;-47
2021/12/09 06:55:07;;;;;;;;;;;24.70;30.60;;;;;;478026;249;1098;-47
2021/12/09 06:57:08;;;;;;;;;;;24.60;30.60;;;;;;477898;249;1279;-47
2021/12/09 06:59:10;;;;;;;;;;;24.60;30.60;;;;;;478034;248;1138;-46
2021/12/09 07:01:11;;;;;;;;;;;24.60;30.50;;;;;;478214;248;1169;-47
2021/12/09 07:03:12;;;;;;;;;;;24.60;30.60;;;;;;477900;249;1154;-47
2021/12/09 07:05:14;;;;;;;;;;;24.60;30.50;;;;;;477927;248;1213;-47
2021/12/09 07:07:15;;;;;;;;;;;24.60;30.60;;;;;;477988;249;1208;-47
2021/12/09 07:09:16;;;;;;;;;;;24.70;30.60;;;;;;478024;248;1167;-47
2021/12/09 07:11:18;;;;;;;;;;;24.70;30.60;;;;;;477952;249;2139;-47
2021/12/09 07:13:19;;;;;;;;;;;24.70;30.50;;;;;;478206;249;1303;-47
2021/12/09 07:15:21;;;;;;;;;;;24.60;30.50;;;;;;478114;249;1049;-47
2021/12/09 07:17:22;;;;;;;;;;;24.60;30.50;;;;;;477908;248;1330;-47
2021/12/09 07:19:23;;;;;;;;;;;24.70;30.50;;;;;;477862;249;1221;-47
2021/12/09 07:21:25;;;;;;;;;;;24.60;30.40;;;;;;477942;249;1252;-47
2021/12/09 07:23:26;;;;;;;;;;;24.70;30.40;;;;;;477764;249;1106;-47
2021/12/09 07:25:27;;;;;;;;;;;24.70;30.50;;;;;;477828;249;1039;-47
2021/12/09 07:27:29;;;;;;;;;;;24.70;30.50;;;;;;477844;249;1226;-47
2021/12/09 07:29:31;;;;;;;;;;;24.60;30.40;;;;;;478042;249;1090;-46
2021/12/09 07:31:31;;;;;;;;;;;24.70;30.40;;;;;;477851;249;2506;-47
2021/12/09 07:33:32;;;;;;;;;;;24.70;30.40;;;;;;477752;249;1607;-47
2021/12/09 07:35:34;;;;;;;;;;;24.70;30.40;;;;;;477831;249;1179;-47
2021/12/09 07:37:36;;;;;;;;;;;24.70;30.40;;;;;;477840;249;1246;-47
2021/12/09 07:39:36;;;;;;;;;;;24.70;30.40;;;;;;477876;249;1475;-47
2021/12/09 07:41:38;;;;;;;;;;;24.70;30.40;;;;;;477821;249;1735;-47
2021/12/09 07:43:39;;;;;;;;;;;24.70;30.40;;;;;;477701;249;1767;-46
2021/12/09 07:45:40;;;;;;;;;;;24.70;30.40;;;;;;477868;249;1078;-47
2021/12/09 07:47:43;;;;;;;;;;;24.60;30.40;;;;;;477791;249;1460;-47
2021/12/09 07:49:43;;;;;;;;;;;24.70;30.40;;;;;;477829;248;2360;-47
2021/12/09 07:51:44;;;;;;;;;;;24.70;30.30;;;;;;477851;249;2194;-47
2021/12/09 07:53:46;;;;;;;;;;;24.70;30.30;;;;;;478014;249;1128;-47
2021/12/09 07:55:47;;;;;;;;;;;24.70;30.30;;;;;;477827;249;1082;-47
2021/12/09 07:57:48;;;;;;;;;;;24.80;30.30;;;;;;477664;248;1247;-47
2021/12/09 07:59:50;;;;;;;;;;;24.80;30.30;;;;;;477596;249;1074;-47
2021/12/09 08:01:51;;;;;;;;;;;24.70;30.30;;;;;;477579;249;1270;-47
2021/12/09 08:03:52;;;;;;;;;;;24.70;30.30;;;;;;477972;249;1231;-46
2021/12/09 08:05:53;;;;;;;;;;;24.70;30.30;;;;;;477741;249;1324;-47
2021/12/09 08:07:55;;;;;;;;;;;24.60;30.30;;;;;;477592;249;1193;-47
2021/12/09 08:09:56;;;;;;;;;;;24.70;30.30;;;;;;477556;249;1246;-47
2021/12/09 08:11:57;;;;;;;;;;;24.70;30.30;;;;;;477705;249;2120;-47
2021/12/09 08:13:59;;;;;;;;;;;24.70;30.30;;;;;;477697;249;1138;-47
2021/12/09 08:16:00;;;;;;;;;;;24.70;30.30;;;;;;477676;248;1170;-47
2021/12/09 08:18:14;;;;;;;;;;;24.70;30.30;;;;;;477764;249;1199;-47
2021/12/09 08:20:05;;;;;;;;;;;24.70;30.20;;;;;;476932;249;2384;-47
2021/12/09 08:22:05;;;;;;;;;;;24.70;30.30;;;;;;477689;249;1861;-47
2021/12/09 08:24:06;;;;;;;;;;;24.70;30.20;;;;;;477924;249;1125;-47
2021/12/09 08:26:08;;;;;;;;;;;24.70;30.20;;;;;;477648;249;1358;-47
2021/12/09 08:28:09;;;;;;;;;;;24.80;30.20;;;;;;477600;249;1222;-47
2021/12/09 08:30:10;;;;;;;;;;;24.70;30.30;;;;;;477580;249;1251;-47
2021/12/09 08:32:11;;;;;;;;;;;24.70;30.30;;;;;;477574;249;2190;-47
2021/12/09 08:34:13;;;;;;;;;;;24.70;30.30;;;;;;477629;249;1232;-47
2021/12/09 08:36:14;;;;;;;;;;;24.70;30.20;;;;;;477650;249;1206;-46
2021/12/09 08:38:16;;;;;;;;;;;24.70;30.20;;;;;;477686;249;1145;-46
2021/12/09 08:40:17;;;;;;;;;;;24.70;30.20;;;;;;477736;248;1144;-47
2021/12/09 08:42:18;;;;;;;;;;;24.80;30.10;;;;;;477586;249;1175;-47
2021/12/09 08:44:20;;;;;;;;;;;24.70;30.20;;;;;;477828;249;1088;-47
2021/12/09 08:46:21;;;;;;;;;;;24.70;30.20;;;;;;477583;249;1434;-47
2021/12/09 08:48:22;;;;;;;;;;;24.80;30.20;;;;;;477540;249;1145;-46
2021/12/09 08:50:24;;;;;;;;;;;24.80;30.20;;;;;;477517;249;2120;-46
2021/12/09 08:52:25;;;;;;;;;;;24.80;30.10;;;;;;477429;249;1366;-47
2021/12/09 08:54:26;;;;;;;;;;;24.80;30.20;;;;;;477636;249;1086;-47
2021/12/09 08:56:28;;;;;;;;;;;24.70;30.20;;;;;;477562;249;1347;-47
2021/12/09 08:58:30;;;;;;;;;;;24.70;30.20;;;;;;477583;249;1238;-47
2021/12/09 09:00:32;;;;;;;;;;;24.70;30.10;;;;;;477518;249;2512;-47
2021/12/09 09:02:32;;;;;;;;;;;24.70;30.20;;;;;;477531;249;2333;-47
2021/12/09 09:04:33;;;;;;;;;;;24.70;30.10;;;;;;477857;249;1070;-46
2021/12/09 09:06:35;;;;;;;;;;;24.70;30.10;;;;;;477703;248;1335;-47
2021/12/09 09:08:36;;;;;;;;;;;24.80;30.10;;;;;;477615;249;1133;-47
2021/12/09 09:10:37;;;;;;;;;;;24.80;30.00;;;;;;477742;249;2210;-46
2021/12/09 09:12:39;;;;;;;;;;;24.80;30.00;;;;;;477697;249;1057;-47
2021/12/09 09:14:40;;;;;;;;;;;24.80;30.10;;;;;;477733;249;1124;-47
2021/12/09 09:16:42;;;;;;;;;;;24.80;30.10;;;;;;477603;249;1215;-47
2021/12/09 09:18:43;;;;;;;;;;;24.80;30.10;;;;;;477975;249;2317;-47
2021/12/09 09:20:44;;;;;;;;;;;24.80;30.10;;;;;;478378;249;1145;-47
2021/12/09 09:22:45;;;;;;;;;;;24.80;30.00;;;;;;477677;249;1078;-47
2021/12/09 09:24:47;;;;;;;;;;;24.80;30.00;;;;;;477596;248;1213;-47
2021/12/09 09:26:48;;;;;;;;;;;24.80;30.00;;;;;;477508;249;1599;-47
2021/12/09 09:28:50;;;;;;;;;;;24.80;30.00;;;;;;477602;249;1110;-47
2021/12/09 09:30:53;;;;;;;;;;;24.80;30.00;;;;;;477750;249;2315;-47
2021/12/09 09:32:54;;;;;;;;;;;24.80;30.00;;;;;;478010;248;1176;-47
2021/12/09 09:34:56;;;;;;;;;;;24.80;30.00;;;;;;477733;248;1155;-47
2021/12/09 09:36:57;;;;;;;;;;;24.80;30.00;;;;;;477836;249;1198;-46
2021/12/09 09:39:06;;;;;;;;;;;24.80;30.00;;;;;;477594;249;1296;-47
2021/12/09 09:41:05;;;;;;;;;;;24.80;30.00;;;;;;477022;248;1388;-46
2021/12/09 09:43:05;;;;;;;;;;;24.80;30.00;;;;;;477553;248;1350;-46
2021/12/09 09:45:03;;;;;;;;;;;24.80;30.00;;;;;;477635;248;2299;-47
2021/12/09 09:47:04;;;;;;;;;;;24.80;30.00;;;;;;477561;249;1192;-47
2021/12/09 09:49:06;;;;;;;;;;;24.80;30.00;;;;;;477592;248;1223;-47
2021/12/09 09:51:07;;;;;;;;;;;24.80;30.00;;;;;;477689;249;2186;-47
2021/12/09 09:53:08;;;;;;;;;;;24.80;30.00;;;;;;477468;248;1166;-46
2021/12/09 09:55:14;;;;;;;;;;;24.80;30.00;;;;;;477563;248;1504;-47
2021/12/09 09:57:11;;;;;;;;;;;24.80;30.00;;;;;;477594;248;2225;-47
2021/12/09 09:59:17;;;;;;;;;;;24.80;30.00;;;;;;478022;249;1116;-47
2021/12/09 10:01:14;;;;;;;;;;;24.80;30.00;;;;;;477616;249;2132;-47
2021/12/09 10:03:17;;;;;;;;;;;24.80;30.00;;;;;;477841;249;1211;-46
2021/12/09 10:05:22;;;;;;;;;;;24.80;29.90;;;;;;477673;249;1121;-47
2021/12/09 10:07:19;;;;;;;;;;;24.80;29.90;;;;;;477267;248;2252;-47
2021/12/09 10:09:21;;;;;;;;;;;24.80;29.90;;;;;;477545;249;1075;-47
2021/12/09 10:11:22;;;;;;;;;;;24.80;29.90;;;;;;477534;249;2187;-47
2021/12/09 10:13:23;;;;;;;;;;;24.80;30.00;;;;;;477695;249;1074;-47
2021/12/09 10:15:25;;;;;;;;;;;24.80;29.90;;;;;;477614;249;1500;-47
2021/12/09 10:17:26;;;;;;;;;;;24.80;29.90;;;;;;477805;249;1224;-47
2021/12/09 10:19:28;;;;;;;;;;;24.80;29.80;;;;;;477669;249;1231;-47
2021/12/09 10:21:30;;;;;;;;;;;24.90;29.90;;;;;;477771;249;1412;-47
2021/12/09 10:23:31;;;;;;;;;;;24.80;29.90;;;;;;477509;248;1215;-47
2021/12/09 10:25:32;;;;;;;;;;;24.80;29.90;;;;;;477467;249;1377;-46
2021/12/09 10:27:35;;;;;;;;;;;24.80;29.90;;;;;;477664;248;1635;-47
2021/12/09 10:29:38;;;;;;;;;;;24.80;29.80;;;;;;477560;249;2376;-47
2021/12/09 10:31:36;;;;;;;;;;;24.80;29.80;;;;;;477525;248;2332;-47
2021/12/09 10:33:42;;;;;;;;;;;24.80;29.80;;;;;;477699;249;1209;-46
2021/12/09 10:35:39;;;;;;;;;;;24.80;29.80;;;;;;477512;248;2148;-47
2021/12/09 10:37:40;;;;;;;;;;;24.80;29.80;;;;;;478288;249;1261;-47
2021/12/09 10:39:41;;;;;;;;;;;24.80;29.80;;;;;;477728;249;1404;-47
2021/12/09 10:41:43;;;;;;;;;;;24.80;29.80;;;;;;477814;249;1367;-47
2021/12/09 10:43:44;;;;;;;;;;;24.80;29.80;;;;;;477633;249;1194;-46
2021/12/09 10:45:47;;;;;;;;;;;24.80;29.80;;;;;;477447;248;1231;-47
2021/12/09 10:47:51;;;;;;;;;;;24.80;29.80;;;;;;477516;249;2008;-46
2021/12/09 10:49:53;;;;;;;;;;;24.80;29.80;;;;;;477547;249;1561;-47
2021/12/09 10:51:59;;;;;;;;;;;24.80;29.80;;;;;;477589;248;2190;-47
2021/12/09 10:53:58;;;;;;;;;;;24.80;29.80;;;;;;477576;248;2167;-47
2021/12/09 10:56:00;;;;;;;;;;;24.80;29.80;;;;;;477748;249;1262;-47
2021/12/09 10:58:01;;;;;;;;;;;24.80;29.80;;;;;;477749;249;1186;-47
2021/12/09 11:00:02;;;;;;;;;;;24.90;29.80;;;;;;477636;249;1291;-46
2021/12/09 11:02:04;;;;;;;;;;;24.90;29.80;;;;;;477604;249;1169;-46
2021/12/09 11:04:05;;;;;;;;;;;24.90;29.80;;;;;;477742;248;1518;-47
2021/12/09 11:06:07;;;;;;;;;;;24.90;29.80;;;;;;477663;249;1363;-47
2021/12/09 11:08:08;;;;;;;;;;;24.90;29.70;;;;;;477664;249;1066;-47
2021/12/09 11:10:09;;;;;;;;;;;24.80;29.70;;;;;;477748;249;1163;-47
2021/12/09 11:12:11;;;;;;;;;;;24.80;29.70;;;;;;477772;248;2147;-47
2021/12/09 11:14:13;;;;;;;;;;;24.80;29.70;;;;;;477661;249;1223;-46
2021/12/09 11:16:22;;;;;;;;;;;24.90;29.80;;;;;;477468;249;2542;-47
2021/12/09 11:18:15;;;;;;;;;;;24.90;29.70;;;;;;477101;249;2340;-47
2021/12/09 11:20:16;;;;;;;;;;;24.80;29.70;;;;;;477800;249;1212;-47
2021/12/09 11:22:20;;;;;;;;;;;24.90;29.80;;;;;;477621;249;1338;-46
2021/12/09 11:24:20;;;;;;;;;;;24.90;29.70;;;;;;477290;248;2289;-47
2021/12/09 11:26:23;;;;;;;;;;;24.90;29.70;;;;;;477200;249;2311;-47
2021/12/09 11:28:21;;;;;;;;;;;24.90;29.70;;;;;;477855;248;1365;-47
2021/12/09 11:30:23;;;;;;;;;;;24.90;29.70;;;;;;477641;249;1237;-47
2021/12/09 11:32:36;;;;;;;;;;;24.80;29.70;;;;;;477700;249;2202;-47
2021/12/09 11:34:26;;;;;;;;;;;24.90;29.70;;;;;;476834;248;1942;-47
2021/12/09 11:36:27;;;;;;;;;;;24.90;29.70;;;;;;477634;248;2012;-47
2021/12/09 11:38:43;;;;;;;;;;;24.90;29.60;;;;;;477685;249;1258;-47
2021/12/09 11:40:36;;;;;;;;;;;24.90;29.70;;;;;;477234;248;2083;-47
2021/12/09 11:42:40;;;;;;;;;;;24.90;29.60;;;;;;477388;248;2060;-47
2021/12/09 11:44:36;;;;;;;;;;;24.90;29.60;;;;;;477314;248;2111;-46
2021/12/09 11:46:37;;;;;;;;;;;24.90;29.60;;;;;;477613;249;1332;-47
2021/12/09 11:48:38;;;;;;;;;;;24.90;29.60;;;;;;477562;249;1261;-47
2021/12/09 11:50:40;;;;;;;;;;;24.90;29.60;;;;;;477570;249;1181;-47
2021/12/09 11:52:43;;;;;;;;;;;24.90;29.60;;;;;;477587;248;2219;-47
2021/12/09 11:54:49;;;;;;;;;;;24.90;29.60;;;;;;477485;248;2050;-47
2021/12/09 11:56:58;;;;;;;;;;;24.90;29.60;;;;;;477080;249;2186;-47